Chemical Pioneer — KAFO — position and weather

sailwx.info

Track history (hours):
 
Tides and Currents Weather Stations Pressure Air Temp Water Temp Dewpoint Dewpoint Depression Visibility Wind Speed Wind Dir Waves Ship Positions

Chemical Pioneer

Owner: US Shipping Corp, Edison, NJ. More information available from US FCC via Universal Licensing System and Coast Guard Vessel Documentation Center.

Last reported at 2017-Mar-29 03:25 UTC. Time now 2017-Mar-30 01:02 UTC.
Position N 31°56' W 079°03'.

Type: Tanker. MMSI: 366032000.

Date/timePositionNaut miles runAvg speedWind from/ knotsBaromVisibWave heightAir tempDewpointWater temp
2017-Mar-29 03:25N 31°56' W 079°03'  
2017-Mar-26 12:34N 26°24' W 079°47'1818.1
2017-Mar-26 11:34N 26°06' W 079°49'1818.3
2017-Mar-26 10:33N 25°48' W 079°51'1818.0
2017-Mar-26 09:33N 25°30' W 079°54'  
2017-Mar-23 21:07N 28°28' W 094°49'1015.6
2017-Mar-23 20:30N 28°35' W 094°57'1515.4
2017-Mar-23 19:33N 28°46' W 095°08'  
2017-Mar-21 10:17N 29°05' W 094°30'2112.3
2017-Mar-21 08:33N 29°21' W 094°46'7 6.9
2017-Mar-21 07:33N 29°22' W 094°54'1 0.1
2017-Mar-20 15:33N 29°22' W 094°55'0 0.0
2017-Mar-20 14:31N 29°22' W 094°55'1 1.0
2017-Mar-20 13:33N 29°22' W 094°54'8 7.7
2017-Mar-20 12:33N 29°21' W 094°45'1 0.6
2017-Mar-20 10:11N 29°21' W 094°44'0 0.0
2017-Mar-20 09:23N 29°21' W 094°44'0 0.0
2017-Mar-20 08:23N 29°21' W 094°44'0 0.0
2017-Mar-20 06:08N 29°21' W 094°44'0 0.0
2017-Mar-20 05:26N 29°21' W 094°44'0 0.0
2017-Mar-20 01:23N 29°21' W 094°44'0 0.1
2017-Mar-20 00:32N 29°21' W 094°44'0 0.0
2017-Mar-19 13:17N 29°21' W 094°44'0 0.1
2017-Mar-19 12:29N 29°21' W 094°44'0 0.1
2017-Mar-19 11:28N 29°21' W 094°44'44 8.6
2017-Mar-19 06:17N 29°30' W 093°54'1414.7
2017-Mar-19 05:19N 29°33' W 093°38'1114.8
2017-Mar-19 04:33N 29°36' W 093°25'1110.1
2017-Mar-19 03:28N 29°46' W 093°21'  
Track history (hours):
 
Tides and Currents Weather Stations Pressure Air Temp Water Temp Dewpoint Dewpoint Depression Visibility Wind Speed Wind Dir Waves Ship Positions

Chemical Pioneer

Owner: US Shipping Corp, Edison, NJ. More information available from US FCC via Universal Licensing System and Coast Guard Vessel Documentation Center.

Last reported at 2017-Mar-29 03:25 UTC. Time now 2017-Mar-30 01:02 UTC.
Position N 31°56' W 079°03'.

Type: Tanker. MMSI: 366032000.

Date/timePositionNaut miles runAvg speedWind from/ knotsBaromVisibWave heightAir tempDewpointWater temp
2017-Mar-29 03:25N 31°56' W 079°03'  
2017-Mar-26 12:34N 26°24' W 079°47'1818.1
2017-Mar-26 11:34N 26°06' W 079°49'1818.3
2017-Mar-26 10:33N 25°48' W 079°51'1818.0
2017-Mar-26 09:33N 25°30' W 079°54'  
2017-Mar-23 21:07N 28°28' W 094°49'1015.6
2017-Mar-23 20:30N 28°35' W 094°57'1515.4
2017-Mar-23 19:33N 28°46' W 095°08'  
2017-Mar-21 10:17N 29°05' W 094°30'2112.3
2017-Mar-21 08:33N 29°21' W 094°46'7 6.9
2017-Mar-21 07:33N 29°22' W 094°54'1 0.1
2017-Mar-20 15:33N 29°22' W 094°55'0 0.0
2017-Mar-20 14:31N 29°22' W 094°55'1 1.0
2017-Mar-20 13:33N 29°22' W 094°54'8 7.7
2017-Mar-20 12:33N 29°21' W 094°45'1 0.6
2017-Mar-20 10:11N 29°21' W 094°44'0 0.0
2017-Mar-20 09:23N 29°21' W 094°44'0 0.0
2017-Mar-20 08:23N 29°21' W 094°44'0 0.0
2017-Mar-20 06:08N 29°21' W 094°44'0 0.0
2017-Mar-20 05:26N 29°21' W 094°44'0 0.0
2017-Mar-20 01:23N 29°21' W 094°44'0 0.1
2017-Mar-20 00:32N 29°21' W 094°44'0 0.0
2017-Mar-19 13:17N 29°21' W 094°44'0 0.1
2017-Mar-19 12:29N 29°21' W 094°44'0 0.1
2017-Mar-19 11:28N 29°21' W 094°44'44 8.6
2017-Mar-19 06:17N 29°30' W 093°54'1414.7
2017-Mar-19 05:19N 29°33' W 093°38'1114.8
2017-Mar-19 04:33N 29°36' W 093°25'1110.1
2017-Mar-19 03:28N 29°46' W 093°21'  

Dump ship's entire track history